sensor_id;sensor_type;location;lat;lon;timestamp;temperature;humidity
22716;DHT22;11525;51.152;4.456;2022-12-05T00:01:23;3.10;99.90
22716;DHT22;11525;51.152;4.456;2022-12-05T00:03:55;3.20;99.90
22716;DHT22;11525;51.152;4.456;2022-12-05T00:06:26;3.10;99.90
22716;DHT22;11525;51.152;4.456;2022-12-05T00:08:52;3.10;99.90
22716;DHT22;11525;51.152;4.456;2022-12-05T00:11:24;3.10;99.90
22716;DHT22;11525;51.152;4.456;2022-12-05T00:13:53;3.00;99.90
22716;DHT22;11525;51.152;4.456;2022-12-05T00:16:24;3.00;99.90
22716;DHT22;11525;51.152;4.456;2022-12-05T00:18:53;3.00;99.90
22716;DHT22;11525;51.152;4.456;2022-12-05T00:21:25;3.10;99.90
22716;DHT22;11525;51.152;4.456;2022-12-05T00:23:53;3.10;99.90
22716;DHT22;11525;51.152;4.456;2022-12-05T00:26:20;3.30;99.90
22716;DHT22;11525;51.152;4.456;2022-12-05T00:28:47;3.30;99.90
22716;DHT22;11525;51.152;4.456;2022-12-05T00:31:15;3.40;99.90
22716;DHT22;11525;51.152;4.456;2022-12-05T00:33:42;3.40;99.90
22716;DHT22;11525;51.152;4.456;2022-12-05T00:36:17;3.30;99.90
22716;DHT22;11525;51.152;4.456;2022-12-05T00:38:46;3.40;99.90
22716;DHT22;11525;51.152;4.456;2022-12-05T00:41:16;3.40;99.90
22716;DHT22;11525;51.152;4.456;2022-12-05T00:43:43;3.40;99.90
22716;DHT22;11525;51.152;4.456;2022-12-05T00:46:12;3.50;99.90
22716;DHT22;11525;51.152;4.456;2022-12-05T00:48:39;3.40;99.90
22716;DHT22;11525;51.152;4.456;2022-12-05T00:51:19;3.20;99.90
22716;DHT22;11525;51.152;4.456;2022-12-05T00:53:46;3.10;99.90
22716;DHT22;11525;51.152;4.456;2022-12-05T00:56:24;3.10;99.90
22716;DHT22;11525;51.152;4.456;2022-12-05T00:59:00;3.10;99.90
22716;DHT22;11525;51.152;4.456;2022-12-05T01:01:38;3.10;99.90
22716;DHT22;11525;51.152;4.456;2022-12-05T01:04:13;3.10;99.90
22716;DHT22;11525;51.152;4.456;2022-12-05T01:06:40;3.10;99.90
22716;DHT22;11525;51.152;4.456;2022-12-05T01:09:06;3.00;99.90
22716;DHT22;11525;51.152;4.456;2022-12-05T01:11:33;3.00;99.90
22716;DHT22;11525;51.152;4.456;2022-12-05T01:14:01;3.00;99.90
22716;DHT22;11525;51.152;4.456;2022-12-05T01:16:32;3.00;99.90
22716;DHT22;11525;51.152;4.456;2022-12-05T01:19:01;3.10;99.90
22716;DHT22;11525;51.152;4.456;2022-12-05T01:21:29;3.20;99.90
22716;DHT22;11525;51.152;4.456;2022-12-05T01:24:04;3.20;99.90
22716;DHT22;11525;51.152;4.456;2022-12-05T01:26:34;3.20;99.90
22716;DHT22;11525;51.152;4.456;2022-12-05T01:29:03;3.30;99.90
22716;DHT22;11525;51.152;4.456;2022-12-05T01:31:39;3.30;99.90
22716;DHT22;11525;51.152;4.456;2022-12-05T01:34:10;3.30;99.90
22716;DHT22;11525;51.152;4.456;2022-12-05T01:36:40;3.30;99.90
22716;DHT22;11525;51.152;4.456;2022-12-05T01:39:07;3.40;99.90
22716;DHT22;11525;51.152;4.456;2022-12-05T01:41:36;3.40;99.90
22716;DHT22;11525;51.152;4.456;2022-12-05T01:44:56;3.40;99.90
22716;DHT22;11525;51.152;4.456;2022-12-05T01:46:53;3.30;99.90
22716;DHT22;11525;51.152;4.456;2022-12-05T01:49:43;3.20;99.90
22716;DHT22;11525;51.152;4.456;2022-12-05T01:52:13;3.10;99.90
22716;DHT22;11525;51.152;4.456;2022-12-05T01:54:42;3.00;99.90
22716;DHT22;11525;51.152;4.456;2022-12-05T01:57:13;2.90;99.90
22716;DHT22;11525;51.152;4.456;2022-12-05T01:59:49;2.90;99.90
22716;DHT22;11525;51.152;4.456;2022-12-05T02:02:22;2.90;99.90
22716;DHT22;11525;51.152;4.456;2022-12-05T02:05:08;3.10;99.90
22716;DHT22;11525;51.152;4.456;2022-12-05T02:07:42;3.30;99.90
22716;DHT22;11525;51.152;4.456;2022-12-05T02:10:17;3.30;99.90
22716;DHT22;11525;51.152;4.456;2022-12-05T02:12:44;3.20;99.90
22716;DHT22;11525;51.152;4.456;2022-12-05T02:26:58;3.20;99.90
22716;DHT22;11525;51.152;4.456;2022-12-05T02:33:14;3.20;99.90
22716;DHT22;11525;51.152;4.456;2022-12-05T02:36:38;3.20;99.90
22716;DHT22;11525;51.152;4.456;2022-12-05T02:39:34;3.30;99.90
22716;DHT22;11525;51.152;4.456;2022-12-05T02:42:33;3.40;99.90
22716;DHT22;11525;51.152;4.456;2022-12-05T02:45:09;3.30;99.90
22716;DHT22;11525;51.152;4.456;2022-12-05T02:47:41;3.30;99.90
22716;DHT22;11525;51.152;4.456;2022-12-05T02:50:09;3.20;99.90
22716;DHT22;11525;51.152;4.456;2022-12-05T02:52:37;3.10;99.90
22716;DHT22;11525;51.152;4.456;2022-12-05T02:55:03;3.00;99.90
22716;DHT22;11525;51.152;4.456;2022-12-05T02:57:50;3.10;99.90
22716;DHT22;11525;51.152;4.456;2022-12-05T03:00:26;3.10;99.90
22716;DHT22;11525;51.152;4.456;2022-12-05T03:02:56;3.10;99.90
22716;DHT22;11525;51.152;4.456;2022-12-05T03:08:19;3.20;99.90
22716;DHT22;11525;51.152;4.456;2022-12-05T03:10:50;3.20;99.90
22716;DHT22;11525;51.152;4.456;2022-12-05T03:13:24;3.20;99.90
22716;DHT22;11525;51.152;4.456;2022-12-05T03:16:00;3.20;99.90
22716;DHT22;11525;51.152;4.456;2022-12-05T03:18:38;3.20;99.90
22716;DHT22;11525;51.152;4.456;2022-12-05T03:21:26;3.40;99.90
22716;DHT22;11525;51.152;4.456;2022-12-05T03:24:09;3.30;99.90
22716;DHT22;11525;51.152;4.456;2022-12-05T03:32:26;3.50;99.90
22716;DHT22;11525;51.152;4.456;2022-12-05T03:40:28;3.50;99.90
22716;DHT22;11525;51.152;4.456;2022-12-05T03:46:17;3.80;99.90
22716;DHT22;11525;51.152;4.456;2022-12-05T03:49:23;3.80;99.90
22716;DHT22;11525;51.152;4.456;2022-12-05T03:52:30;3.70;99.90
22716;DHT22;11525;51.152;4.456;2022-12-05T03:55:01;3.70;99.90
22716;DHT22;11525;51.152;4.456;2022-12-05T03:57:41;3.80;99.90
22716;DHT22;11525;51.152;4.456;2022-12-05T04:00:15;3.80;99.90
22716;DHT22;11525;51.152;4.456;2022-12-05T04:05:37;3.80;99.90
22716;DHT22;11525;51.152;4.456;2022-12-05T04:08:13;3.80;99.90
22716;DHT22;11525;51.152;4.456;2022-12-05T04:10:42;3.80;99.90
22716;DHT22;11525;51.152;4.456;2022-12-05T04:14:01;3.50;99.90
22716;DHT22;11525;51.152;4.456;2022-12-05T04:16:42;3.60;99.90
22716;DHT22;11525;51.152;4.456;2022-12-05T04:22:29;3.80;99.90
22716;DHT22;11525;51.152;4.456;2022-12-05T04:25:00;3.60;99.90
22716;DHT22;11525;51.152;4.456;2022-12-05T04:28:09;3.40;99.90
22716;DHT22;11525;51.152;4.456;2022-12-05T04:34:08;3.30;99.90
22716;DHT22;11525;51.152;4.456;2022-12-05T04:37:18;3.40;99.90
22716;DHT22;11525;51.152;4.456;2022-12-05T04:40:45;3.40;99.90
22716;DHT22;11525;51.152;4.456;2022-12-05T04:43:27;3.40;99.90
22716;DHT22;11525;51.152;4.456;2022-12-05T04:45:57;3.30;99.90
22716;DHT22;11525;51.152;4.456;2022-12-05T04:48:26;3.30;99.90
22716;DHT22;11525;51.152;4.456;2022-12-05T04:50:54;3.40;99.90
22716;DHT22;11525;51.152;4.456;2022-12-05T04:53:28;3.40;99.90
22716;DHT22;11525;51.152;4.456;2022-12-05T04:56:02;3.40;99.90
22716;DHT22;11525;51.152;4.456;2022-12-05T04:58:35;3.50;99.90
22716;DHT22;11525;51.152;4.456;2022-12-05T05:01:28;3.50;99.90
22716;DHT22;11525;51.152;4.456;2022-12-05T05:07:32;3.80;99.90
22716;DHT22;11525;51.152;4.456;2022-12-05T05:10:18;3.80;99.90
22716;DHT22;11525;51.152;4.456;2022-12-05T05:12:49;3.80;99.90
22716;DHT22;11525;51.152;4.456;2022-12-05T05:15:26;3.80;99.90
22716;DHT22;11525;51.152;4.456;2022-12-05T05:17:56;3.80;99.90
22716;DHT22;11525;51.152;4.456;2022-12-05T05:20:27;3.70;99.90
22716;DHT22;11525;51.152;4.456;2022-12-05T05:22:59;3.60;99.90
22716;DHT22;11525;51.152;4.456;2022-12-05T05:25:29;3.70;99.90
22716;DHT22;11525;51.152;4.456;2022-12-05T05:27:55;3.80;99.90
22716;DHT22;11525;51.152;4.456;2022-12-05T05:30:23;3.80;99.90
22716;DHT22;11525;51.152;4.456;2022-12-05T05:32:54;3.80;99.90
22716;DHT22;11525;51.152;4.456;2022-12-05T05:38:44;3.80;99.90
22716;DHT22;11525;51.152;4.456;2022-12-05T05:41:23;3.80;99.90
22716;DHT22;11525;51.152;4.456;2022-12-05T05:43:50;3.70;99.90
22716;DHT22;11525;51.152;4.456;2022-12-05T05:46:19;3.70;99.90
22716;DHT22;11525;51.152;4.456;2022-12-05T05:48:45;3.70;99.90
22716;DHT22;11525;51.152;4.456;2022-12-05T05:51:13;3.70;99.90
22716;DHT22;11525;51.152;4.456;2022-12-05T05:53:42;3.60;99.90
22716;DHT22;11525;51.152;4.456;2022-12-05T05:56:11;3.70;99.90
22716;DHT22;11525;51.152;4.456;2022-12-05T05:58:38;3.80;99.90
22716;DHT22;11525;51.152;4.456;2022-12-05T06:01:10;3.80;99.90
22716;DHT22;11525;51.152;4.456;2022-12-05T06:03:38;3.80;99.90
22716;DHT22;11525;51.152;4.456;2022-12-05T06:06:07;3.80;99.90
22716;DHT22;11525;51.152;4.456;2022-12-05T06:08:38;3.90;99.90
22716;DHT22;11525;51.152;4.456;2022-12-05T06:11:16;3.80;99.90
22716;DHT22;11525;51.152;4.456;2022-12-05T06:13:46;3.80;99.90
22716;DHT22;11525;51.152;4.456;2022-12-05T06:16:24;3.80;99.90
22716;DHT22;11525;51.152;4.456;2022-12-05T06:19:00;3.80;99.90
22716;DHT22;11525;51.152;4.456;2022-12-05T06:21:26;3.70;99.90
22716;DHT22;11525;51.152;4.456;2022-12-05T06:23:58;3.70;99.90
22716;DHT22;11525;51.152;4.456;2022-12-05T06:26:27;3.70;99.90
22716;DHT22;11525;51.152;4.456;2022-12-05T06:28:59;3.60;99.90
22716;DHT22;11525;51.152;4.456;2022-12-05T06:31:28;3.60;99.90
22716;DHT22;11525;51.152;4.456;2022-12-05T06:34:06;3.80;99.90
22716;DHT22;11525;51.152;4.456;2022-12-05T06:36:38;3.80;99.90
22716;DHT22;11525;51.152;4.456;2022-12-05T06:39:05;4.00;99.90
22716;DHT22;11525;51.152;4.456;2022-12-05T06:41:51;4.00;99.90
22716;DHT22;11525;51.152;4.456;2022-12-05T06:44:18;4.00;99.90
22716;DHT22;11525;51.152;4.456;2022-12-05T06:46:46;4.00;99.90
22716;DHT22;11525;51.152;4.456;2022-12-05T06:49:13;3.90;99.90
22716;DHT22;11525;51.152;4.456;2022-12-05T06:51:39;4.00;99.90
22716;DHT22;11525;51.152;4.456;2022-12-05T06:54:12;4.00;99.90
22716;DHT22;11525;51.152;4.456;2022-12-05T06:56:48;4.10;99.90
22716;DHT22;11525;51.152;4.456;2022-12-05T06:59:22;4.20;99.90
22716;DHT22;11525;51.152;4.456;2022-12-05T07:01:48;4.10;99.90
22716;DHT22;11525;51.152;4.456;2022-12-05T07:04:20;3.90;99.90
22716;DHT22;11525;51.152;4.456;2022-12-05T07:06:53;3.90;99.90
22716;DHT22;11525;51.152;4.456;2022-12-05T07:09:32;3.90;99.90
22716;DHT22;11525;51.152;4.456;2022-12-05T07:12:32;4.00;99.90
22716;DHT22;11525;51.152;4.456;2022-12-05T07:15:05;4.00;99.90
22716;DHT22;11525;51.152;4.456;2022-12-05T07:17:40;3.90;99.90
22716;DHT22;11525;51.152;4.456;2022-12-05T07:20:25;4.10;99.90
22716;DHT22;11525;51.152;4.456;2022-12-05T07:23:27;4.30;99.90
22716;DHT22;11525;51.152;4.456;2022-12-05T07:26:22;4.20;99.90
22716;DHT22;11525;51.152;4.456;2022-12-05T07:28:49;3.90;99.90
22716;DHT22;11525;51.152;4.456;2022-12-05T07:31:20;4.00;99.90
22716;DHT22;11525;51.152;4.456;2022-12-05T07:33:48;4.00;99.90
22716;DHT22;11525;51.152;4.456;2022-12-05T07:36:22;4.00;99.90
22716;DHT22;11525;51.152;4.456;2022-12-05T07:38:54;4.00;99.90
22716;DHT22;11525;51.152;4.456;2022-12-05T07:41:31;4.00;99.90
22716;DHT22;11525;51.152;4.456;2022-12-05T07:43:58;4.00;99.90
22716;DHT22;11525;51.152;4.456;2022-12-05T07:46:28;4.10;99.90
22716;DHT22;11525;51.152;4.456;2022-12-05T07:48:54;4.10;99.90
22716;DHT22;11525;51.152;4.456;2022-12-05T07:51:21;4.10;99.90
22716;DHT22;11525;51.152;4.456;2022-12-05T07:53:47;4.20;99.90
22716;DHT22;11525;51.152;4.456;2022-12-05T07:56:27;4.30;99.90
22716;DHT22;11525;51.152;4.456;2022-12-05T07:59:07;4.20;99.90
22716;DHT22;11525;51.152;4.456;2022-12-05T08:01:40;4.00;99.90
22716;DHT22;11525;51.152;4.456;2022-12-05T08:04:15;3.90;99.90
22716;DHT22;11525;51.152;4.456;2022-12-05T08:06:50;3.90;99.90
22716;DHT22;11525;51.152;4.456;2022-12-05T08:09:19;4.00;99.90
22716;DHT22;11525;51.152;4.456;2022-12-05T08:11:45;4.00;99.90
22716;DHT22;11525;51.152;4.456;2022-12-05T08:14:19;4.10;99.90
22716;DHT22;11525;51.152;4.456;2022-12-05T08:16:45;4.30;99.90
22716;DHT22;11525;51.152;4.456;2022-12-05T08:19:15;4.30;99.90
22716;DHT22;11525;51.152;4.456;2022-12-05T08:21:41;4.30;99.90
22716;DHT22;11525;51.152;4.456;2022-12-05T08:24:08;4.30;99.90
22716;DHT22;11525;51.152;4.456;2022-12-05T08:26:38;4.30;99.90
22716;DHT22;11525;51.152;4.456;2022-12-05T08:29:14;4.40;99.90
22716;DHT22;11525;51.152;4.456;2022-12-05T08:31:47;4.50;99.90
22716;DHT22;11525;51.152;4.456;2022-12-05T08:34:14;4.40;99.90
22716;DHT22;11525;51.152;4.456;2022-12-05T08:36:45;4.50;99.90
22716;DHT22;11525;51.152;4.456;2022-12-05T08:39:14;4.40;99.90
22716;DHT22;11525;51.152;4.456;2022-12-05T08:41:41;4.40;99.90
22716;DHT22;11525;51.152;4.456;2022-12-05T08:44:09;4.50;99.90
22716;DHT22;11525;51.152;4.456;2022-12-05T08:46:36;4.60;99.90
22716;DHT22;11525;51.152;4.456;2022-12-05T08:49:04;4.60;99.90
22716;DHT22;11525;51.152;4.456;2022-12-05T08:51:31;4.70;99.90
22716;DHT22;11525;51.152;4.456;2022-12-05T08:53:57;4.80;99.90
22716;DHT22;11525;51.152;4.456;2022-12-05T08:56:27;4.70;99.90
22716;DHT22;11525;51.152;4.456;2022-12-05T08:58:58;4.60;99.90
22716;DHT22;11525;51.152;4.456;2022-12-05T09:01:27;4.60;99.90
22716;DHT22;11525;51.152;4.456;2022-12-05T09:04:00;4.90;99.90
22716;DHT22;11525;51.152;4.456;2022-12-05T09:06:29;5.30;99.90
22716;DHT22;11525;51.152;4.456;2022-12-05T09:09:01;5.20;99.90
22716;DHT22;11525;51.152;4.456;2022-12-05T09:11:34;5.10;99.90
22716;DHT22;11525;51.152;4.456;2022-12-05T09:14:04;5.00;99.90
22716;DHT22;11525;51.152;4.456;2022-12-05T09:16:40;5.00;99.90
22716;DHT22;11525;51.152;4.456;2022-12-05T09:19:15;5.00;99.90
22716;DHT22;11525;51.152;4.456;2022-12-05T09:22:03;5.00;99.90
22716;DHT22;11525;51.152;4.456;2022-12-05T09:24:29;4.90;99.90
22716;DHT22;11525;51.152;4.456;2022-12-05T09:26:56;4.90;99.90
22716;DHT22;11525;51.152;4.456;2022-12-05T09:29:25;4.80;99.90
22716;DHT22;11525;51.152;4.456;2022-12-05T09:31:54;4.80;99.90
22716;DHT22;11525;51.152;4.456;2022-12-05T09:34:20;4.90;99.90
22716;DHT22;11525;51.152;4.456;2022-12-05T09:36:48;5.00;99.90
22716;DHT22;11525;51.152;4.456;2022-12-05T09:39:17;5.00;99.90
22716;DHT22;11525;51.152;4.456;2022-12-05T09:42:16;5.10;99.90
22716;DHT22;11525;51.152;4.456;2022-12-05T09:44:54;5.10;99.90
22716;DHT22;11525;51.152;4.456;2022-12-05T09:50:16;5.20;99.90
22716;DHT22;11525;51.152;4.456;2022-12-05T09:53:01;5.10;99.90
22716;DHT22;11525;51.152;4.456;2022-12-05T09:58:01;5.10;99.90
22716;DHT22;11525;51.152;4.456;2022-12-05T10:00:31;5.10;99.90
22716;DHT22;11525;51.152;4.456;2022-12-05T10:03:11;5.20;99.90
22716;DHT22;11525;51.152;4.456;2022-12-05T10:06:12;5.20;99.90
22716;DHT22;11525;51.152;4.456;2022-12-05T10:12:09;5.00;99.90
22716;DHT22;11525;51.152;4.456;2022-12-05T10:17:34;5.10;99.90
22716;DHT22;11525;51.152;4.456;2022-12-05T10:20:33;5.20;99.90
22716;DHT22;11525;51.152;4.456;2022-12-05T10:23:47;5.30;99.90
22716;DHT22;11525;51.152;4.456;2022-12-05T10:31:47;5.40;99.90
22716;DHT22;11525;51.152;4.456;2022-12-05T10:34:29;5.50;99.90
22716;DHT22;11525;51.152;4.456;2022-12-05T10:37:08;5.60;99.90
22716;DHT22;11525;51.152;4.456;2022-12-05T10:39:42;5.70;99.90
22716;DHT22;11525;51.152;4.456;2022-12-05T10:42:25;5.70;99.90
22716;DHT22;11525;51.152;4.456;2022-12-05T10:45:01;5.80;99.90
22716;DHT22;11525;51.152;4.456;2022-12-05T10:47:28;5.70;99.90
22716;DHT22;11525;51.152;4.456;2022-12-05T10:50:04;5.70;99.90
22716;DHT22;11525;51.152;4.456;2022-12-05T10:52:30;5.70;99.90
22716;DHT22;11525;51.152;4.456;2022-12-05T10:55:04;5.70;99.90
22716;DHT22;11525;51.152;4.456;2022-12-05T10:57:34;5.70;99.90
22716;DHT22;11525;51.152;4.456;2022-12-05T11:00:14;5.60;99.90
22716;DHT22;11525;51.152;4.456;2022-12-05T11:02:49;5.50;99.90
22716;DHT22;11525;51.152;4.456;2022-12-05T11:05:27;5.60;99.90
22716;DHT22;11525;51.152;4.456;2022-12-05T11:07:57;5.80;99.90
22716;DHT22;11525;51.152;4.456;2022-12-05T11:10:29;6.00;99.90
22716;DHT22;11525;51.152;4.456;2022-12-05T11:12:58;6.00;99.90
22716;DHT22;11525;51.152;4.456;2022-12-05T11:15:31;6.10;99.90
22716;DHT22;11525;51.152;4.456;2022-12-05T11:18:37;6.20;99.90
22716;DHT22;11525;51.152;4.456;2022-12-05T11:21:13;6.20;99.90
22716;DHT22;11525;51.152;4.456;2022-12-05T11:23:42;6.10;99.90
22716;DHT22;11525;51.152;4.456;2022-12-05T11:26:35;6.20;99.90
22716;DHT22;11525;51.152;4.456;2022-12-05T11:29:29;6.20;99.90
22716;DHT22;11525;51.152;4.456;2022-12-05T11:32:01;6.30;99.90
22716;DHT22;11525;51.152;4.456;2022-12-05T11:37:55;6.10;99.90
22716;DHT22;11525;51.152;4.456;2022-12-05T11:43:39;6.30;99.90
22716;DHT22;11525;51.152;4.456;2022-12-05T11:46:23;6.20;99.90
22716;DHT22;11525;51.152;4.456;2022-12-05T12:08:23;6.50;99.90
22716;DHT22;11525;51.152;4.456;2022-12-05T12:13:59;6.50;99.90
22716;DHT22;11525;51.152;4.456;2022-12-05T12:16:52;6.40;99.90
22716;DHT22;11525;51.152;4.456;2022-12-05T12:24:44;6.50;99.90
22716;DHT22;11525;51.152;4.456;2022-12-05T12:27:43;6.60;99.90
22716;DHT22;11525;51.152;4.456;2022-12-05T12:35:39;6.50;99.90
22716;DHT22;11525;51.152;4.456;2022-12-05T12:40:53;6.60;99.90
22716;DHT22;11525;51.152;4.456;2022-12-05T12:44:03;6.70;99.90
22716;DHT22;11525;51.152;4.456;2022-12-05T12:47:03;6.60;99.90
22716;DHT22;11525;51.152;4.456;2022-12-05T12:52:19;6.60;99.90
22716;DHT22;11525;51.152;4.456;2022-12-05T12:57:45;6.60;99.90
22716;DHT22;11525;51.152;4.456;2022-12-05T13:03:15;6.70;99.90
22716;DHT22;11525;51.152;4.456;2022-12-05T13:05:46;6.70;99.90
22716;DHT22;11525;51.152;4.456;2022-12-05T13:08:15;6.70;99.90
22716;DHT22;11525;51.152;4.456;2022-12-05T13:10:49;6.70;99.90
22716;DHT22;11525;51.152;4.456;2022-12-05T13:13:24;6.70;99.90
22716;DHT22;11525;51.152;4.456;2022-12-05T13:15:57;6.80;99.90
22716;DHT22;11525;51.152;4.456;2022-12-05T13:18:25;6.80;99.90
22716;DHT22;11525;51.152;4.456;2022-12-05T13:20:57;6.80;99.90
22716;DHT22;11525;51.152;4.456;2022-12-05T13:23:29;6.80;99.90
22716;DHT22;11525;51.152;4.456;2022-12-05T13:26:00;6.80;99.90
22716;DHT22;11525;51.152;4.456;2022-12-05T13:28:53;6.70;99.90
22716;DHT22;11525;51.152;4.456;2022-12-05T13:31:40;6.70;99.90
22716;DHT22;11525;51.152;4.456;2022-12-05T13:37:28;6.80;99.90
22716;DHT22;11525;51.152;4.456;2022-12-05T13:40:31;6.70;99.90
22716;DHT22;11525;51.152;4.456;2022-12-05T13:43:27;6.70;99.90
22716;DHT22;11525;51.152;4.456;2022-12-05T13:48:57;6.60;99.90
22716;DHT22;11525;51.152;4.456;2022-12-05T13:54:14;6.60;99.90
22716;DHT22;11525;51.152;4.456;2022-12-05T13:56:57;6.70;99.90
22716;DHT22;11525;51.152;4.456;2022-12-05T14:07:54;6.70;99.90
22716;DHT22;11525;51.152;4.456;2022-12-05T14:15:45;6.80;99.90
22716;DHT22;11525;51.152;4.456;2022-12-05T14:18:41;6.90;99.90
22716;DHT22;11525;51.152;4.456;2022-12-05T14:21:23;6.90;99.90
22716;DHT22;11525;51.152;4.456;2022-12-05T14:24:31;6.90;99.90
22716;DHT22;11525;51.152;4.456;2022-12-05T14:27:10;7.00;99.90
22716;DHT22;11525;51.152;4.456;2022-12-05T14:32:46;6.90;99.90
22716;DHT22;11525;51.152;4.456;2022-12-05T14:38:37;7.00;99.90
22716;DHT22;11525;51.152;4.456;2022-12-05T14:41:23;7.00;99.90
22716;DHT22;11525;51.152;4.456;2022-12-05T14:43:55;7.00;99.90
22716;DHT22;11525;51.152;4.456;2022-12-05T14:46:34;7.00;99.90
22716;DHT22;11525;51.152;4.456;2022-12-05T14:49:49;7.00;99.90
22716;DHT22;11525;51.152;4.456;2022-12-05T14:52:28;7.00;99.90
22716;DHT22;11525;51.152;4.456;2022-12-05T14:55:06;7.00;99.90
22716;DHT22;11525;51.152;4.456;2022-12-05T15:00:58;7.00;99.90
22716;DHT22;11525;51.152;4.456;2022-12-05T15:03:31;7.00;99.90
22716;DHT22;11525;51.152;4.456;2022-12-05T15:06:14;7.00;99.90
22716;DHT22;11525;51.152;4.456;2022-12-05T15:09:03;7.00;99.90
22716;DHT22;11525;51.152;4.456;2022-12-05T15:11:53;6.90;99.90
22716;DHT22;11525;51.152;4.456;2022-12-05T15:14:31;6.90;99.90
22716;DHT22;11525;51.152;4.456;2022-12-05T15:17:25;6.90;99.90
22716;DHT22;11525;51.152;4.456;2022-12-05T15:20:05;6.90;99.90
22716;DHT22;11525;51.152;4.456;2022-12-05T15:22:39;6.90;99.90
22716;DHT22;11525;51.152;4.456;2022-12-05T15:25:25;7.00;99.90
22716;DHT22;11525;51.152;4.456;2022-12-05T15:28:15;7.00;99.90
22716;DHT22;11525;51.152;4.456;2022-12-05T15:30:42;7.00;99.90
22716;DHT22;11525;51.152;4.456;2022-12-05T15:33:12;7.00;99.90
22716;DHT22;11525;51.152;4.456;2022-12-05T15:35:40;7.00;99.90
22716;DHT22;11525;51.152;4.456;2022-12-05T15:38:32;7.00;99.90
22716;DHT22;11525;51.152;4.456;2022-12-05T15:41:00;7.00;99.90
22716;DHT22;11525;51.152;4.456;2022-12-05T15:43:33;6.90;99.90
22716;DHT22;11525;51.152;4.456;2022-12-05T15:46:28;6.90;99.90
22716;DHT22;11525;51.152;4.456;2022-12-05T15:52:33;7.40;99.90
22716;DHT22;11525;51.152;4.456;2022-12-05T15:55:09;7.20;99.90
22716;DHT22;11525;51.152;4.456;2022-12-05T15:57:43;7.20;99.90
22716;DHT22;11525;51.152;4.456;2022-12-05T16:00:15;7.10;99.90
22716;DHT22;11525;51.152;4.456;2022-12-05T16:02:58;7.20;99.90
22716;DHT22;11525;51.152;4.456;2022-12-05T16:05:54;7.20;99.90
22716;DHT22;11525;51.152;4.456;2022-12-05T16:08:18;7.10;99.90
22716;DHT22;11525;51.152;4.456;2022-12-05T16:10:48;7.10;99.90
22716;DHT22;11525;51.152;4.456;2022-12-05T16:13:16;7.10;99.90
22716;DHT22;11525;51.152;4.456;2022-12-05T16:15:50;7.10;99.90
22716;DHT22;11525;51.152;4.456;2022-12-05T16:18:30;7.00;99.90
22716;DHT22;11525;51.152;4.456;2022-12-05T16:21:29;7.00;99.90
22716;DHT22;11525;51.152;4.456;2022-12-05T16:24:18;7.10;99.90
22716;DHT22;11525;51.152;4.456;2022-12-05T16:26:57;7.00;99.90
22716;DHT22;11525;51.152;4.456;2022-12-05T16:29:30;7.10;99.90
22716;DHT22;11525;51.152;4.456;2022-12-05T16:32:02;7.10;99.90
22716;DHT22;11525;51.152;4.456;2022-12-05T16:34:32;7.10;99.90
22716;DHT22;11525;51.152;4.456;2022-12-05T16:36:58;7.10;99.90
22716;DHT22;11525;51.152;4.456;2022-12-05T16:39:26;7.10;99.90
22716;DHT22;11525;51.152;4.456;2022-12-05T16:41:59;7.10;99.90
22716;DHT22;11525;51.152;4.456;2022-12-05T16:47:23;7.10;99.90
22716;DHT22;11525;51.152;4.456;2022-12-05T16:49:50;7.10;99.90
22716;DHT22;11525;51.152;4.456;2022-12-05T16:52:16;7.10;99.90
22716;DHT22;11525;51.152;4.456;2022-12-05T16:54:46;7.20;99.90
22716;DHT22;11525;51.152;4.456;2022-12-05T16:57:16;7.20;99.90
22716;DHT22;11525;51.152;4.456;2022-12-05T16:59:43;7.20;99.90
22716;DHT22;11525;51.152;4.456;2022-12-05T17:02:15;7.20;99.90
22716;DHT22;11525;51.152;4.456;2022-12-05T17:04:42;7.20;99.90
22716;DHT22;11525;51.152;4.456;2022-12-05T17:07:10;7.20;99.90
22716;DHT22;11525;51.152;4.456;2022-12-05T17:09:36;7.10;99.90
22716;DHT22;11525;51.152;4.456;2022-12-05T17:12:23;7.10;99.90
22716;DHT22;11525;51.152;4.456;2022-12-05T17:14:49;7.20;99.90
22716;DHT22;11525;51.152;4.456;2022-12-05T17:17:15;7.20;99.90
22716;DHT22;11525;51.152;4.456;2022-12-05T17:19:42;7.20;99.90
22716;DHT22;11525;51.152;4.456;2022-12-05T17:22:13;7.20;99.90
22716;DHT22;11525;51.152;4.456;2022-12-05T17:24:40;7.20;99.90
22716;DHT22;11525;51.152;4.456;2022-12-05T17:27:12;7.20;99.90
22716;DHT22;11525;51.152;4.456;2022-12-05T17:29:41;7.20;99.90
22716;DHT22;11525;51.152;4.456;2022-12-05T17:32:10;7.30;99.90
22716;DHT22;11525;51.152;4.456;2022-12-05T17:34:36;7.20;99.90
22716;DHT22;11525;51.152;4.456;2022-12-05T17:37:05;7.20;99.90
22716;DHT22;11525;51.152;4.456;2022-12-05T17:39:31;7.20;99.90
22716;DHT22;11525;51.152;4.456;2022-12-05T17:41:57;7.20;99.90
22716;DHT22;11525;51.152;4.456;2022-12-05T17:44:23;7.20;99.90
22716;DHT22;11525;51.152;4.456;2022-12-05T17:46:52;7.30;99.90
22716;DHT22;11525;51.152;4.456;2022-12-05T17:49:25;7.30;99.90
22716;DHT22;11525;51.152;4.456;2022-12-05T17:51:56;7.30;99.90
22716;DHT22;11525;51.152;4.456;2022-12-05T17:54:27;7.30;99.90
22716;DHT22;11525;51.152;4.456;2022-12-05T17:56:56;7.30;99.90
22716;DHT22;11525;51.152;4.456;2022-12-05T17:59:25;7.30;99.90
22716;DHT22;11525;51.152;4.456;2022-12-05T18:01:56;7.30;99.90
22716;DHT22;11525;51.152;4.456;2022-12-05T18:04:22;7.30;99.90
22716;DHT22;11525;51.152;4.456;2022-12-05T18:07:03;7.40;99.90
22716;DHT22;11525;51.152;4.456;2022-12-05T18:13:12;7.40;99.90
22716;DHT22;11525;51.152;4.456;2022-12-05T18:19:35;7.40;99.90
22716;DHT22;11525;51.152;4.456;2022-12-05T18:22:19;7.40;99.90
22716;DHT22;11525;51.152;4.456;2022-12-05T18:24:52;7.30;99.90
22716;DHT22;11525;51.152;4.456;2022-12-05T18:27:29;7.40;99.90
22716;DHT22;11525;51.152;4.456;2022-12-05T18:30:13;7.20;99.90
22716;DHT22;11525;51.152;4.456;2022-12-05T18:32:39;7.20;99.90
22716;DHT22;11525;51.152;4.456;2022-12-05T18:35:05;7.20;99.90
22716;DHT22;11525;51.152;4.456;2022-12-05T18:37:36;7.20;99.90
22716;DHT22;11525;51.152;4.456;2022-12-05T18:40:04;7.00;99.90
22716;DHT22;11525;51.152;4.456;2022-12-05T18:42:30;7.10;99.90
22716;DHT22;11525;51.152;4.456;2022-12-05T18:44:56;7.00;99.90
22716;DHT22;11525;51.152;4.456;2022-12-05T18:47:22;7.10;99.90
22716;DHT22;11525;51.152;4.456;2022-12-05T18:49:49;7.00;99.90
22716;DHT22;11525;51.152;4.456;2022-12-05T18:52:16;7.00;99.90
22716;DHT22;11525;51.152;4.456;2022-12-05T18:54:42;6.90;99.90
22716;DHT22;11525;51.152;4.456;2022-12-05T18:57:11;7.00;99.90
22716;DHT22;11525;51.152;4.456;2022-12-05T18:59:43;7.00;99.90
22716;DHT22;11525;51.152;4.456;2022-12-05T19:02:09;7.00;99.90
22716;DHT22;11525;51.152;4.456;2022-12-05T19:04:35;6.90;99.90
22716;DHT22;11525;51.152;4.456;2022-12-05T19:07:02;7.00;99.90
22716;DHT22;11525;51.152;4.456;2022-12-05T19:09:30;6.90;99.90
22716;DHT22;11525;51.152;4.456;2022-12-05T19:11:57;6.90;99.90
22716;DHT22;11525;51.152;4.456;2022-12-05T19:14:25;7.00;99.90
22716;DHT22;11525;51.152;4.456;2022-12-05T19:16:57;7.00;99.90